Monahans, Texas
Current Conditions -  °F | °C
As of 5:24 AM on Sunday 21 Dec 2014 (Local Time) from KINK Reporting Station
Moderate Fog Moderate Fog  
Wind Chill: 35°   Ceiling: 200
Heat Index: 35°   Visibility: 0.5mi
Dew Point: 32°   Wind: 0mph
Humidity: 89%   Direction: NA
Pressure: 29.98"   Gusts: NA
Location:  31.6°N, 102.89°W
Report Text: KINK 211124Z AUTO 00000KT 1/2SM FG VV002 02/00 A2998 RMK AO2 T00170000
Loading
Personal Weather Stations






























Interactive Weather Map New forecast layout! Learn more

10-Day Weather Forecast

Advertisements
Track Severe Weather on mobile